createdAt,value
2023-03-29T00:01:43.086Z,49.81
2023-03-29T00:04:19.266Z,46.21
2023-03-29T00:06:46.559Z,47.59
2023-03-29T00:09:16.160Z,48.69
2023-03-29T00:11:42.812Z,50.00
2023-03-29T00:14:09.423Z,50.57
2023-03-29T00:16:36.045Z,50.87
2023-03-29T00:19:02.938Z,47.83
2023-03-29T00:21:29.531Z,49.60
2023-03-29T00:23:56.842Z,46.92
2023-03-29T00:26:23.545Z,48.79
2023-03-29T00:28:50.190Z,46.49
2023-03-29T00:31:17.185Z,47.36
2023-03-29T00:33:43.957Z,50.26
2023-03-29T00:36:11.183Z,46.91
2023-03-29T00:38:38.182Z,46.99
2023-03-29T00:41:05.253Z,48.61
2023-03-29T00:43:31.926Z,48.96
2023-03-29T00:45:58.560Z,49.79
2023-03-29T00:48:27.980Z,47.12
2023-03-29T00:50:56.139Z,49.81
2023-03-29T00:53:47.169Z,48.92
2023-03-29T00:56:40.069Z,49.61
2023-03-29T00:59:11.923Z,48.90
2023-03-29T01:01:52.041Z,47.66
2023-03-29T01:04:26.170Z,48.29
2023-03-29T01:06:59.691Z,47.40
2023-03-29T01:09:26.473Z,49.19
2023-03-29T01:11:54.783Z,47.68
2023-03-29T01:14:58.567Z,49.63
2023-03-29T01:17:25.612Z,48.12
2023-03-29T01:20:31.937Z,47.02
2023-03-29T01:23:07.544Z,49.78
2023-03-29T01:25:46.215Z,46.01
2023-03-29T01:28:23.234Z,47.34
2023-03-29T01:31:04.694Z,45.71
2023-03-29T01:33:33.051Z,45.75
2023-03-29T01:36:01.511Z,47.13
2023-03-29T01:38:30.887Z,46.69
2023-03-29T01:40:57.570Z,45.04
2023-03-29T01:43:53.024Z,45.75
2023-03-29T01:46:32.677Z,49.84
2023-03-29T01:49:13.032Z,45.62
2023-03-29T01:51:42.208Z,45.26
2023-03-29T01:54:15.410Z,45.44
2023-03-29T01:56:42.435Z,47.76
2023-03-29T01:59:12.017Z,45.50
2023-03-29T02:01:43.436Z,42.54
2023-03-29T02:04:11.662Z,42.70
2023-03-29T02:06:38.333Z,41.87
2023-03-29T02:09:05.033Z,43.25
2023-03-29T02:11:31.702Z,41.43
2023-03-29T02:13:58.375Z,42.39
2023-03-29T02:16:25.061Z,42.67
2023-03-29T02:18:51.748Z,46.55
2023-03-29T02:21:46.590Z,43.29
2023-03-29T02:24:13.280Z,43.04
2023-03-29T02:26:39.915Z,44.57
2023-03-29T02:29:06.555Z,45.52
2023-03-29T02:31:39.091Z,45.74
2023-03-29T02:34:06.920Z,46.75
2023-03-29T02:36:39.123Z,45.32
2023-03-29T02:39:05.796Z,48.22
2023-03-29T02:41:32.480Z,42.54
2023-03-29T02:43:59.121Z,43.67
2023-03-29T02:46:25.782Z,43.67
2023-03-29T02:48:52.632Z,46.83
2023-03-29T02:51:22.478Z,41.98
2023-03-29T02:53:53.285Z,43.96
2023-03-29T02:56:20.326Z,43.32
2023-03-29T02:58:46.983Z,45.08
2023-03-29T03:01:13.665Z,44.26
2023-03-29T03:03:40.382Z,43.82
2023-03-29T03:06:07.093Z,45.80
2023-03-29T03:08:33.686Z,43.00
2023-03-29T03:11:00.547Z,42.39
2023-03-29T03:13:27.380Z,46.78
2023-03-29T03:15:54.015Z,47.44
2023-03-29T03:18:20.651Z,47.58
2023-03-29T03:20:59.395Z,43.79
2023-03-29T03:23:26.272Z,41.68
2023-03-29T03:25:52.959Z,46.34
2023-03-29T03:28:20.236Z,47.50
2023-03-29T03:30:46.888Z,43.24
2023-03-29T03:33:13.529Z,43.53
2023-03-29T03:35:40.168Z,43.79
2023-03-29T03:38:06.764Z,47.06
2023-03-29T03:40:33.377Z,43.58
2023-03-29T03:43:00.121Z,46.19
2023-03-29T03:45:26.748Z,45.92
2023-03-29T03:47:53.482Z,46.38
2023-03-29T03:50:20.152Z,46.24
2023-03-29T03:52:46.815Z,47.93
2023-03-29T03:55:13.450Z,45.17
2023-03-29T03:57:40.424Z,45.50
2023-03-29T04:00:07.721Z,46.58
2023-03-29T04:02:34.375Z,46.61
2023-03-29T04:05:01.041Z,45.91
2023-03-29T04:07:27.781Z,46.20
2023-03-29T04:09:54.376Z,50.09
2023-03-29T04:12:21.026Z,47.75
2023-03-29T04:14:47.670Z,46.27
2023-03-29T04:17:14.251Z,45.95
2023-03-29T04:19:40.847Z,47.80
2023-03-29T04:22:07.459Z,48.80
2023-03-29T04:24:34.071Z,46.44
2023-03-29T04:27:00.721Z,47.66
2023-03-29T04:29:27.382Z,48.04
2023-03-29T04:31:54.450Z,49.49
2023-03-29T04:34:21.096Z,48.99
2023-03-29T04:36:47.781Z,46.88
2023-03-29T04:39:14.400Z,50.94
2023-03-29T04:41:41.030Z,49.79
2023-03-29T04:44:07.681Z,47.61
2023-03-29T04:46:34.360Z,46.84
2023-03-29T04:49:01.082Z,50.28
2023-03-29T04:51:27.742Z,48.46
2023-03-29T04:53:54.506Z,47.68
2023-03-29T04:56:21.161Z,48.21
2023-03-29T04:58:47.763Z,47.97
2023-03-29T05:01:14.349Z,48.16
2023-03-29T05:03:41.018Z,49.69
2023-03-29T05:06:09.079Z,48.15
2023-03-29T05:08:36.203Z,46.58
2023-03-29T05:11:02.989Z,46.15
2023-03-29T05:13:29.800Z,48.59
2023-03-29T05:15:56.463Z,48.83
2023-03-29T05:18:23.151Z,50.12
2023-03-29T05:20:51.240Z,49.76
2023-03-29T05:23:17.820Z,47.85
2023-03-29T05:25:44.517Z,46.81
2023-03-29T05:28:11.170Z,48.18
2023-03-29T05:30:37.829Z,48.43
2023-03-29T05:33:04.584Z,46.80
2023-03-29T05:35:31.549Z,50.04
2023-03-29T05:37:58.224Z,48.19
2023-03-29T05:40:24.825Z,46.71
2023-03-29T05:42:51.808Z,46.90
2023-03-29T05:45:18.715Z,47.32
2023-03-29T05:47:45.454Z,48.09
2023-03-29T05:50:12.198Z,47.77
2023-03-29T05:52:38.869Z,47.60
2023-03-29T05:55:05.856Z,46.62
2023-03-29T05:57:32.564Z,48.81
2023-03-29T05:59:59.249Z,48.75
2023-03-29T06:02:26.209Z,47.42
2023-03-29T06:04:52.984Z,49.70
2023-03-29T06:07:19.655Z,46.14
2023-03-29T06:09:46.309Z,47.62
2023-03-29T06:12:12.965Z,49.63
2023-03-29T06:14:39.694Z,46.75
2023-03-29T06:17:06.408Z,48.35
2023-03-29T06:19:33.044Z,50.85
2023-03-29T06:21:59.692Z,49.36
2023-03-29T06:24:26.311Z,48.54
2023-03-29T06:26:52.958Z,48.79
2023-03-29T06:29:19.653Z,47.27
2023-03-29T06:31:46.379Z,49.87
2023-03-29T06:34:13.068Z,49.64
2023-03-29T06:36:39.660Z,47.82
2023-03-29T06:39:06.253Z,48.63
2023-03-29T06:41:32.849Z,50.45
2023-03-29T06:43:59.762Z,50.45
2023-03-29T06:46:26.500Z,48.43
2023-03-29T06:48:53.189Z,49.04
2023-03-29T06:51:21.902Z,50.35
2023-03-29T06:53:49.878Z,48.63
2023-03-29T06:56:16.481Z,49.75
2023-03-29T06:58:43.162Z,50.94
2023-03-29T07:01:09.772Z,47.52
2023-03-29T07:03:36.355Z,45.66
2023-03-29T07:06:03.450Z,46.59
2023-03-29T07:08:30.172Z,46.43
2023-03-29T07:10:56.774Z,48.67
2023-03-29T07:13:23.424Z,47.48
2023-03-29T07:15:50.142Z,48.97
2023-03-29T07:18:16.758Z,49.02
2023-03-29T07:20:43.365Z,48.21
2023-03-29T07:23:10.187Z,49.02
2023-03-29T07:25:37.067Z,46.84
2023-03-29T07:28:03.892Z,44.84
2023-03-29T07:30:32.393Z,49.35
2023-03-29T07:32:59.380Z,48.22
2023-03-29T07:35:26.373Z,46.04
2023-03-29T07:37:52.972Z,46.63
2023-03-29T07:40:19.840Z,47.49
2023-03-29T07:42:46.464Z,47.48
2023-03-29T07:45:13.465Z,47.50
2023-03-29T07:47:40.948Z,47.25
2023-03-29T07:50:08.402Z,46.30
2023-03-29T07:52:36.259Z,45.46
2023-03-29T07:55:02.928Z,45.55
2023-03-29T07:57:29.550Z,45.42
2023-03-29T07:59:56.202Z,44.96
2023-03-29T08:02:22.830Z,44.64
2023-03-29T08:04:49.647Z,44.67
2023-03-29T08:07:18.905Z,44.50
2023-03-29T08:09:45.693Z,44.48
2023-03-29T08:12:12.396Z,44.77
2023-03-29T08:14:39.050Z,44.97
2023-03-29T08:17:05.944Z,45.29
2023-03-29T08:19:32.603Z,44.39
2023-03-29T08:21:59.932Z,44.14
2023-03-29T08:24:26.570Z,44.15
2023-03-29T08:26:53.176Z,44.26
2023-03-29T08:29:19.856Z,43.74
2023-03-29T08:31:46.538Z,43.84
2023-03-29T08:34:13.679Z,44.72
2023-03-29T08:36:40.358Z,44.20
2023-03-29T08:39:07.064Z,44.38
2023-03-29T08:41:47.249Z,43.42
2023-03-29T08:44:35.203Z,43.37
2023-03-29T08:47:33.308Z,43.01
2023-03-29T08:49:59.965Z,43.50
2023-03-29T08:52:54.440Z,42.98
2023-03-29T08:55:27.292Z,42.19
2023-03-29T08:57:53.984Z,41.85
2023-03-29T09:00:40.265Z,39.93
2023-03-29T09:03:21.465Z,37.25
2023-03-29T09:05:49.611Z,37.19
2023-03-29T09:08:17.219Z,37.36
2023-03-29T09:10:48.917Z,39.80
2023-03-29T09:13:23.020Z,41.08
2023-03-29T09:15:59.013Z,40.41
2023-03-29T09:18:57.927Z,39.83
2023-03-29T09:21:39.543Z,39.91
2023-03-29T09:24:28.192Z,40.31
2023-03-29T09:27:07.849Z,39.97
2023-03-29T09:29:40.489Z,39.45
2023-03-29T09:32:13.814Z,40.15
2023-03-29T09:34:43.528Z,40.02
2023-03-29T09:37:18.763Z,40.12
2023-03-29T09:39:45.379Z,40.70
2023-03-29T09:42:12.041Z,40.61
2023-03-29T09:44:49.626Z,40.66
2023-03-29T09:47:34.612Z,40.33
2023-03-29T09:50:14.028Z,40.44
2023-03-29T09:52:47.725Z,40.83
2023-03-29T09:55:14.731Z,40.79
2023-03-29T09:57:41.618Z,40.90
2023-03-29T10:00:08.608Z,40.37
2023-03-29T10:02:35.272Z,40.41
2023-03-29T10:05:04.342Z,40.27
2023-03-29T10:07:37.090Z,40.64
2023-03-29T10:10:06.834Z,41.34
2023-03-29T10:12:33.553Z,41.12
2023-03-29T10:15:00.293Z,40.11
2023-03-29T10:17:28.545Z,40.21
2023-03-29T10:20:07.495Z,40.13
2023-03-29T10:22:36.588Z,40.22
2023-03-29T10:25:03.838Z,39.20
2023-03-29T10:27:31.749Z,38.74
2023-03-29T10:29:59.130Z,38.80
2023-03-29T10:32:30.606Z,38.83
2023-03-29T10:35:07.783Z,39.52
2023-03-29T10:37:34.503Z,38.90
2023-03-29T10:40:01.193Z,39.19
2023-03-29T10:42:27.790Z,39.61
2023-03-29T10:44:55.785Z,39.91
2023-03-29T10:47:22.484Z,39.98
2023-03-29T10:49:58.947Z,40.55
2023-03-29T10:52:25.736Z,40.62
2023-03-29T10:54:53.858Z,39.89
2023-03-29T10:57:50.564Z,39.54
2023-03-29T11:00:40.568Z,42.00
2023-03-29T11:03:25.283Z,42.44
2023-03-29T11:06:04.330Z,42.73
2023-03-29T11:08:57.964Z,43.86
2023-03-29T11:11:45.301Z,43.83
2023-03-29T11:14:14.861Z,44.22
2023-03-29T11:17:03.616Z,44.56
2023-03-29T11:19:44.399Z,44.30
2023-03-29T11:22:24.381Z,44.72
2023-03-29T11:25:00.120Z,44.61
2023-03-29T11:27:32.765Z,45.31
2023-03-29T11:30:30.291Z,44.24
2023-03-29T11:33:09.196Z,44.15
2023-03-29T11:35:58.024Z,44.08
2023-03-29T11:38:36.674Z,44.22
2023-03-29T11:41:22.873Z,43.48
2023-03-29T11:43:57.488Z,44.20
2023-03-29T11:46:29.472Z,44.14
2023-03-29T11:49:20.986Z,42.42
2023-03-29T11:52:24.392Z,41.38
2023-03-29T11:55:04.691Z,42.02
2023-03-29T11:57:36.456Z,41.57
2023-03-29T12:00:21.598Z,42.23
2023-03-29T12:03:02.402Z,42.62
2023-03-29T12:05:56.766Z,43.34
2023-03-29T12:08:29.378Z,44.02
2023-03-29T12:11:02.196Z,43.21
2023-03-29T12:13:34.736Z,42.79
2023-03-29T12:16:06.804Z,43.01
2023-03-29T12:18:41.300Z,42.02
2023-03-29T12:21:21.707Z,42.33
2023-03-29T12:23:48.456Z,41.85
2023-03-29T12:26:23.973Z,42.01
2023-03-29T12:29:38.233Z,41.87
2023-03-29T12:32:29.313Z,42.05
2023-03-29T12:35:02.838Z,41.23
2023-03-29T12:38:05.146Z,38.88
2023-03-29T12:40:57.115Z,40.07
2023-03-29T12:43:34.059Z,40.30
2023-03-29T12:46:16.884Z,39.95
2023-03-29T12:48:44.446Z,39.69
2023-03-29T12:51:15.381Z,39.67
2023-03-29T12:53:43.737Z,38.88
2023-03-29T12:56:14.600Z,39.43
2023-03-29T12:58:59.574Z,39.40
2023-03-29T13:01:34.090Z,39.85
2023-03-29T13:04:00.648Z,39.96
2023-03-29T13:06:32.263Z,39.63
2023-03-29T13:09:04.070Z,39.46
2023-03-29T13:11:39.523Z,39.33
2023-03-29T13:14:13.036Z,39.64
2023-03-29T13:16:39.632Z,38.88
2023-03-29T13:19:24.821Z,40.42
2023-03-29T13:22:15.583Z,39.52
2023-03-29T13:24:46.221Z,39.50
2023-03-29T13:27:37.016Z,38.21
2023-03-29T13:30:26.542Z,38.88
2023-03-29T13:33:11.873Z,38.19
2023-03-29T13:35:57.752Z,36.57
2023-03-29T13:38:27.657Z,34.82
2023-03-29T13:40:54.177Z,33.64
2023-03-29T13:43:22.892Z,34.12
2023-03-29T13:45:58.165Z,35.28
2023-03-29T13:48:37.316Z,33.53
2023-03-29T13:51:19.094Z,34.70
2023-03-29T13:53:58.555Z,34.04
2023-03-29T13:56:27.136Z,35.20
2023-03-29T13:58:55.540Z,35.10
2023-03-29T14:01:35.497Z,35.58
2023-03-29T14:04:02.153Z,36.23
2023-03-29T14:06:33.239Z,33.44
2023-03-29T14:09:02.605Z,35.17
2023-03-29T14:11:29.668Z,34.97
2023-03-29T14:13:57.620Z,34.84
2023-03-29T14:16:31.213Z,34.48
2023-03-29T14:19:34.552Z,33.92
2023-03-29T14:22:01.613Z,34.00
2023-03-29T14:24:35.061Z,33.39
2023-03-29T14:27:02.507Z,33.89
2023-03-29T14:29:35.426Z,34.88
2023-03-29T14:32:12.053Z,32.95
2023-03-29T14:34:39.361Z,33.92
2023-03-29T14:37:06.435Z,33.57
2023-03-29T14:39:33.480Z,34.38
2023-03-29T14:42:00.204Z,32.82
2023-03-29T14:44:30.968Z,33.60
2023-03-29T14:46:57.628Z,33.47
2023-03-29T14:49:24.278Z,34.01
2023-03-29T14:51:50.878Z,34.86
2023-03-29T14:54:27.744Z,34.67
2023-03-29T14:56:54.692Z,35.49
2023-03-29T14:59:29.470Z,36.27
2023-03-29T15:01:56.103Z,36.35
2023-03-29T15:04:22.773Z,36.51
2023-03-29T15:06:49.443Z,36.19
2023-03-29T15:09:36.274Z,36.40
2023-03-29T15:12:03.000Z,34.95
2023-03-29T15:14:32.962Z,33.06
2023-03-29T15:17:04.663Z,34.65
2023-03-29T15:19:31.384Z,35.08
2023-03-29T15:21:59.355Z,35.96
2023-03-29T15:24:31.346Z,35.51
2023-03-29T15:27:05.500Z,37.14
2023-03-29T15:29:42.430Z,37.70
2023-03-29T15:32:32.823Z,36.65
2023-03-29T15:35:04.233Z,36.59
2023-03-29T15:37:31.184Z,38.75
2023-03-29T15:39:58.076Z,38.92
2023-03-29T15:42:25.007Z,36.89
2023-03-29T15:44:55.185Z,35.41
2023-03-29T15:47:21.795Z,37.60
2023-03-29T15:49:48.408Z,37.74
2023-03-29T15:52:15.188Z,37.06
2023-03-29T15:54:41.798Z,36.64
2023-03-29T15:57:13.508Z,35.83
2023-03-29T15:59:40.217Z,37.20
2023-03-29T16:02:06.957Z,38.49
2023-03-29T16:04:33.753Z,38.26
2023-03-29T16:07:00.397Z,38.17
2023-03-29T16:09:27.045Z,38.75
2023-03-29T16:11:53.690Z,38.64
2023-03-29T16:14:21.162Z,38.58
2023-03-29T16:16:47.895Z,38.87
2023-03-29T16:19:14.611Z,39.96
2023-03-29T16:21:41.609Z,39.93
2023-03-29T16:24:18.652Z,41.52
2023-03-29T16:26:45.830Z,41.60
2023-03-29T16:29:12.611Z,41.64
2023-03-29T16:31:39.355Z,40.85
2023-03-29T16:34:06.009Z,40.37
2023-03-29T16:36:32.688Z,40.15
2023-03-29T16:38:59.566Z,39.91
2023-03-29T16:41:26.315Z,41.13
2023-03-29T16:43:53.198Z,40.48
2023-03-29T16:46:19.863Z,41.69
2023-03-29T16:48:46.512Z,42.17
2023-03-29T16:51:13.124Z,42.34
2023-03-29T16:53:39.772Z,41.63
2023-03-29T16:56:06.905Z,42.27
2023-03-29T16:58:33.609Z,43.98
2023-03-29T17:01:09.980Z,45.74
2023-03-29T17:03:37.162Z,47.90
2023-03-29T17:06:04.659Z,47.46
2023-03-29T17:08:31.880Z,43.76
2023-03-29T17:10:58.577Z,46.85
2023-03-29T17:13:25.332Z,47.21
2023-03-29T17:15:52.868Z,47.88
2023-03-29T17:18:20.284Z,49.77
2023-03-29T17:20:46.961Z,43.02
2023-03-29T17:23:13.738Z,46.33
2023-03-29T17:25:40.496Z,43.83
2023-03-29T17:28:07.105Z,46.08
2023-03-29T17:30:34.521Z,45.95
2023-03-29T17:33:01.254Z,44.51
2023-03-29T17:35:28.247Z,44.91
2023-03-29T17:37:54.905Z,45.87
2023-03-29T17:40:21.885Z,44.87
2023-03-29T17:42:48.610Z,45.02
2023-03-29T17:45:15.699Z,44.96
2023-03-29T17:47:42.370Z,45.64
2023-03-29T17:50:09.925Z,48.84
2023-03-29T17:52:36.676Z,47.04
2023-03-29T17:55:03.411Z,45.91
2023-03-29T17:57:30.034Z,49.34
2023-03-29T17:59:56.679Z,49.29
2023-03-29T18:02:24.386Z,48.67
2023-03-29T18:04:51.208Z,47.78
2023-03-29T18:07:18.011Z,48.25
2023-03-29T18:09:44.742Z,48.27
2023-03-29T18:12:11.437Z,47.43
2023-03-29T18:14:38.213Z,47.71
2023-03-29T18:17:04.879Z,47.62
2023-03-29T18:19:31.557Z,49.12
2023-03-29T18:21:58.199Z,49.16
2023-03-29T18:24:25.009Z,48.37
2023-03-29T18:26:51.644Z,47.96
2023-03-29T18:29:18.303Z,48.50
2023-03-29T18:31:45.073Z,49.73
2023-03-29T18:34:12.004Z,48.05
2023-03-29T18:36:38.616Z,46.99
2023-03-29T18:39:05.279Z,48.61
2023-03-29T18:41:35.402Z,49.76
2023-03-29T18:44:02.147Z,49.57
2023-03-29T18:46:28.893Z,49.08
2023-03-29T18:48:56.037Z,50.39
2023-03-29T18:51:22.873Z,49.08
2023-03-29T18:53:49.530Z,47.88
2023-03-29T18:56:16.414Z,50.65
2023-03-29T18:58:43.061Z,49.23
2023-03-29T19:01:09.892Z,49.07
2023-03-29T19:03:36.791Z,49.04
2023-03-29T19:06:03.846Z,50.29
2023-03-29T19:08:30.815Z,49.24
2023-03-29T19:11:01.304Z,48.88
2023-03-29T19:13:27.970Z,49.71
2023-03-29T19:15:54.772Z,51.05
2023-03-29T19:18:21.509Z,50.69
2023-03-29T19:20:49.539Z,49.23
2023-03-29T19:23:16.307Z,51.76
2023-03-29T19:25:42.982Z,49.07
2023-03-29T19:28:09.820Z,50.33
2023-03-29T19:30:36.514Z,50.25
2023-03-29T19:33:03.141Z,49.71
2023-03-29T19:35:29.890Z,49.75
2023-03-29T19:37:56.509Z,49.77
2023-03-29T19:40:23.165Z,50.14
2023-03-29T19:42:49.989Z,48.84
2023-03-29T19:45:16.660Z,48.35
2023-03-29T19:47:43.462Z,47.40
2023-03-29T19:50:10.379Z,47.93
2023-03-29T19:52:37.006Z,47.43
2023-03-29T19:55:03.829Z,47.86
2023-03-29T19:57:30.486Z,47.50
2023-03-29T19:59:57.229Z,47.79
2023-03-29T20:02:23.885Z,46.14
2023-03-29T20:04:50.619Z,45.76
2023-03-29T20:07:17.274Z,46.14
2023-03-29T20:09:45.311Z,46.91
2023-03-29T20:12:12.143Z,47.54
2023-03-29T20:14:39.069Z,46.69
2023-03-29T20:17:06.386Z,46.76
2023-03-29T20:19:33.271Z,47.88
2023-03-29T20:21:59.906Z,47.79
2023-03-29T20:24:26.599Z,47.82
2023-03-29T20:26:53.195Z,48.45
2023-03-29T20:29:19.866Z,48.18
2023-03-29T20:31:46.615Z,48.01
2023-03-29T20:34:13.359Z,47.72
2023-03-29T20:36:40.035Z,48.40
2023-03-29T20:39:06.977Z,48.97
2023-03-29T20:41:33.670Z,49.46
2023-03-29T20:44:00.422Z,49.96
2023-03-29T20:46:27.847Z,50.08
2023-03-29T20:48:54.481Z,49.84
2023-03-29T20:51:21.988Z,49.96
2023-03-29T20:53:50.968Z,51.00
2023-03-29T20:56:20.464Z,50.03
2023-03-29T20:58:49.366Z,49.98
2023-03-29T21:01:17.246Z,50.72
2023-03-29T21:03:46.621Z,50.25
2023-03-29T21:06:13.391Z,50.39
2023-03-29T21:08:40.273Z,50.86
2023-03-29T21:11:06.972Z,51.99
2023-03-29T21:13:36.919Z,51.60
2023-03-29T21:16:04.013Z,51.18
2023-03-29T21:18:31.381Z,50.42
2023-03-29T21:20:58.562Z,49.76
2023-03-29T21:23:25.236Z,49.48
2023-03-29T21:25:52.071Z,48.96
2023-03-29T21:28:18.679Z,49.54
2023-03-29T21:30:45.348Z,49.16
2023-03-29T21:33:12.192Z,50.03
2023-03-29T21:35:38.812Z,50.11
2023-03-29T21:38:05.677Z,49.48
2023-03-29T21:40:32.705Z,49.53
2023-03-29T21:42:59.921Z,49.44
2023-03-29T21:45:26.612Z,49.58
2023-03-29T21:47:53.493Z,50.13
2023-03-29T21:50:20.584Z,49.52
2023-03-29T21:52:47.316Z,49.81
2023-03-29T21:55:13.997Z,49.97
2023-03-29T21:57:40.661Z,49.73
2023-03-29T22:00:10.985Z,51.15
2023-03-29T22:02:38.448Z,49.39
2023-03-29T22:05:05.612Z,49.58
2023-03-29T22:07:33.125Z,50.14
2023-03-29T22:09:59.967Z,49.08
2023-03-29T22:12:26.834Z,50.89
2023-03-29T22:14:54.124Z,50.07
2023-03-29T22:17:20.780Z,49.31
2023-03-29T22:19:47.433Z,49.58
2023-03-29T22:22:14.388Z,49.98
2023-03-29T22:24:41.569Z,50.46
2023-03-29T22:27:08.286Z,49.10
2023-03-29T22:29:34.930Z,50.82
2023-03-29T22:32:01.561Z,49.55
2023-03-29T22:34:28.240Z,50.36
2023-03-29T22:36:54.941Z,48.71
2023-03-29T22:39:21.652Z,49.33
2023-03-29T22:41:48.327Z,48.71
2023-03-29T22:44:14.954Z,49.23
2023-03-29T22:46:41.657Z,48.93
2023-03-29T22:49:08.301Z,50.49
2023-03-29T22:51:34.948Z,50.26
2023-03-29T22:54:01.565Z,49.93
2023-03-29T22:56:28.208Z,48.59
2023-03-29T22:58:54.925Z,48.11
2023-03-29T23:01:21.672Z,48.34
2023-03-29T23:03:48.309Z,48.41
2023-03-29T23:06:14.933Z,48.07
2023-03-29T23:08:41.526Z,48.43
2023-03-29T23:11:08.188Z,47.88
2023-03-29T23:13:34.814Z,47.73
2023-03-29T23:16:01.747Z,47.95
2023-03-29T23:18:28.864Z,47.42
2023-03-29T23:20:56.201Z,47.36
2023-03-29T23:23:23.759Z,48.27
2023-03-29T23:25:50.932Z,48.11
2023-03-29T23:28:18.565Z,47.27
2023-03-29T23:30:45.163Z,47.99
2023-03-29T23:33:11.868Z,48.17
2023-03-29T23:35:38.582Z,47.42
2023-03-29T23:38:05.239Z,47.53
2023-03-29T23:40:31.922Z,46.96
2023-03-29T23:42:58.526Z,47.47
2023-03-29T23:45:25.206Z,47.31
2023-03-29T23:47:51.896Z,47.92
2023-03-29T23:50:18.622Z,48.71
2023-03-29T23:52:45.232Z,48.25
2023-03-29T23:55:13.330Z,48.09
2023-03-29T23:57:40.240Z,47.72
